Time;durP1;ratioP1;P1;durP2;ratioP2;P2;SDS_P1;SDS_P2;PMS_P1;PMS_P2;Temp;Humidity;BMP_temperature;BMP_pressure;BME280_temperature;BME280_humidity;BME280_pressure;Samples;Min_cycle;Max_cycle;Signal;HPM_P1;HPM_P2
2021/04/24 00:02:02;;;;;;;54.50;27.73;;;;;;;;;;4979528;28;20022;-78
2021/04/24 00:04:28;;;;;;;50.72;27.85;;;;;;;;;;4979365;28;20026;-78
2021/04/24 00:06:54;;;;;;;48.05;24.40;;;;;;;;;;4979345;28;20050;-78
2021/04/24 00:09:20;;;;;;;43.90;21.40;;;;;;;;;;4979013;28;20073;-78
2021/04/24 00:11:47;;;;;;;32.88;20.00;;;;;;;;;;4979199;28;20412;-78
2021/04/24 00:14:13;;;;;;;32.78;18.88;;;;;;;;;;4978928;28;20313;-78
2021/04/24 00:16:39;;;;;;;31.45;17.45;;;;;;;;;;4978964;28;20107;-79
2021/04/24 00:19:07;;;;;;;40.10;19.17;;;;;;;;;;4978854;28;20030;-79
2021/04/24 00:21:33;;;;;;;31.48;17.27;;;;;;;;;;4978676;28;20092;-79
2021/04/24 00:23:59;;;;;;;28.48;17.00;;;;;;;;;;4978767;28;20370;-79
2021/04/24 00:26:26;;;;;;;32.80;17.88;;;;;;;;;;4978697;28;20030;-79
2021/04/24 00:28:52;;;;;;;34.60;18.02;;;;;;;;;;4961536;28;20038;-79
2021/04/24 00:31:19;;;;;;;31.65;17.80;;;;;;;;;;4978185;28;20027;-78
2021/04/24 00:33:45;;;;;;;31.05;17.30;;;;;;;;;;4978507;28;20342;-78
2021/04/24 00:36:13;;;;;;;32.53;17.55;;;;;;;;;;4978692;28;20093;-78
2021/04/24 00:38:39;;;;;;;32.20;18.23;;;;;;;;;;4978506;28;20077;-78
2021/04/24 00:41:05;;;;;;;37.90;17.45;;;;;;;;;;4978646;28;20035;-78
2021/04/24 00:43:31;;;;;;;34.17;18.42;;;;;;;;;;4978518;28;20026;-78
2021/04/24 00:45:57;;;;;;;33.83;17.27;;;;;;;;;;4978415;28;20030;-79
2021/04/24 00:48:24;;;;;;;34.22;18.63;;;;;;;;;;4961281;28;20030;-79
2021/04/24 00:50:50;;;;;;;33.03;17.90;;;;;;;;;;4978188;28;20042;-79
2021/04/24 00:53:16;;;;;;;34.72;16.85;;;;;;;;;;4978321;28;20031;-79
2021/04/24 00:55:42;;;;;;;36.85;18.08;;;;;;;;;;4978072;28;20031;-77
2021/04/24 00:58:10;;;;;;;35.15;17.50;;;;;;;;;;4961238;28;20031;-78
2021/04/24 01:00:36;;;;;;;35.80;18.67;;;;;;;;;;4978185;28;20022;-79
2021/04/24 01:03:02;;;;;;;40.17;21.05;;;;;;;;;;4978408;28;20034;-78
2021/04/24 01:05:31;;;;;;;40.47;19.90;;;;;;;;;;4978465;28;20031;-79
2021/04/24 01:07:57;;;;;;;45.97;21.02;;;;;;;;;;4978237;28;20023;-79
2021/04/24 01:10:23;;;;;;;46.75;20.55;;;;;;;;;;4978005;28;20405;-79
2021/04/24 01:12:50;;;;;;;55.17;21.85;;;;;;;;;;4978149;28;20110;-79
2021/04/24 01:15:18;;;;;;;50.97;21.85;;;;;;;;;;4977957;28;20026;-78
2021/04/24 01:17:44;;;;;;;53.17;22.52;;;;;;;;;;4978016;28;20047;-79
2021/04/24 01:20:11;;;;;;;47.15;21.42;;;;;;;;;;4960922;28;20039;-79
2021/04/24 01:22:37;;;;;;;51.40;21.48;;;;;;;;;;4978071;28;20038;-79
2021/04/24 01:25:07;;;;;;;43.83;20.75;;;;;;;;;;4977977;28;20031;-78
2021/04/24 01:27:33;;;;;;;38.75;20.38;;;;;;;;;;4977983;28;20552;-78
2021/04/24 01:30:00;;;;;;;41.15;20.58;;;;;;;;;;4978014;28;20026;-78
2021/04/24 01:32:26;;;;;;;42.88;19.50;;;;;;;;;;4977924;28;20034;-79
2021/04/24 01:34:52;;;;;;;41.25;19.70;;;;;;;;;;4977664;28;20050;-79
2021/04/24 01:37:18;;;;;;;34.58;19.48;;;;;;;;;;4978031;28;20022;-79
2021/04/24 01:39:44;;;;;;;43.53;21.02;;;;;;;;;;4977843;28;20106;-79
2021/04/24 01:42:10;;;;;;;38.03;20.73;;;;;;;;;;4960821;28;20031;-79
2021/04/24 01:44:36;;;;;;;41.67;19.70;;;;;;;;;;4977855;28;20089;-78
2021/04/24 01:47:02;;;;;;;38.03;20.45;;;;;;;;;;4977766;28;20132;-78
2021/04/24 01:49:28;;;;;;;38.75;19.42;;;;;;;;;;4977864;28;20038;-78
2021/04/24 01:51:54;;;;;;;37.03;18.40;;;;;;;;;;4977736;28;20035;-79
2021/04/24 01:54:21;;;;;;;34.80;17.55;;;;;;;;;;4977834;28;20045;-79
2021/04/24 01:56:47;;;;;;;33.38;17.02;;;;;;;;;;4977648;28;20023;-79
2021/04/24 01:59:18;;;;;;;34.88;17.85;;;;;;;;;;4977670;28;20023;-79
2021/04/24 02:01:46;;;;;;;33.38;17.58;;;;;;;;;;4977863;28;20027;-79
2021/04/24 02:04:13;;;;;;;38.83;22.77;;;;;;;;;;4977996;28;20023;-79
2021/04/24 02:06:39;;;;;;;39.47;23.77;;;;;;;;;;4978408;28;20031;-79
2021/04/24 02:09:08;;;;;;;41.20;21.48;;;;;;;;;;4964056;28;20030;-79
2021/04/24 02:11:34;;;;;;;37.40;19.38;;;;;;;;;;4981314;28;20038;-79
2021/04/24 02:14:00;;;;;;;33.50;17.52;;;;;;;;;;4981121;28;20035;-78
2021/04/24 02:16:26;;;;;;;34.63;17.25;;;;;;;;;;4981165;28;20027;-79
2021/04/24 02:18:52;;;;;;;30.67;17.15;;;;;;;;;;4981246;28;20026;-79
2021/04/24 02:21:18;;;;;;;38.95;18.05;;;;;;;;;;4963848;28;20026;-80
2021/04/24 02:23:44;;;;;;;31.20;16.83;;;;;;;;;;4981008;28;20125;-79
2021/04/24 02:26:10;;;;;;;31.83;17.85;;;;;;;;;;4981077;28;20129;-79
2021/04/24 02:28:37;;;;;;;31.05;17.58;;;;;;;;;;4980966;28;20106;-79
2021/04/24 02:31:03;;;;;;;29.40;17.55;;;;;;;;;;4980945;28;20027;-79
2021/04/24 02:33:29;;;;;;;31.27;17.40;;;;;;;;;;4980946;28;20198;-78
2021/04/24 02:35:57;;;;;;;33.20;17.30;;;;;;;;;;4980688;28;20030;-78
2021/04/24 02:38:24;;;;;;;35.80;17.10;;;;;;;;;;4980773;28;20106;-78
2021/04/24 02:40:52;;;;;;;30.33;17.02;;;;;;;;;;4980755;28;20106;-78
2021/04/24 02:43:18;;;;;;;33.22;18.23;;;;;;;;;;4980725;28;20054;-78
2021/04/24 02:45:44;;;;;;;37.78;17.95;;;;;;;;;;4980790;28;20353;-78
2021/04/24 02:48:10;;;;;;;32.70;17.92;;;;;;;;;;4980897;28;20045;-78
2021/04/24 02:50:36;;;;;;;39.47;19.45;;;;;;;;;;4980594;28;20035;-78
2021/04/24 02:53:03;;;;;;;36.55;19.67;;;;;;;;;;4963400;28;20042;-78
2021/04/24 02:55:29;;;;;;;32.92;18.30;;;;;;;;;;4980578;28;20037;-78
2021/04/24 02:57:55;;;;;;;35.13;19.38;;;;;;;;;;4980483;28;20065;-78
2021/04/24 03:00:22;;;;;;;38.58;20.63;;;;;;;;;;4980347;28;20333;-78
2021/04/24 03:02:58;;;;;;;37.17;18.92;;;;;;;;;;4980429;28;20029;-78
2021/04/24 03:05:24;;;;;;;38.72;19.70;;;;;;;;;;4963060;28;20294;-78
2021/04/24 03:07:50;;;;;;;35.20;19.90;;;;;;;;;;4962812;28;20035;-78
2021/04/24 03:10:16;;;;;;;38.97;20.02;;;;;;;;;;4980151;28;20031;-78
2021/04/24 03:12:42;;;;;;;35.20;20.20;;;;;;;;;;4980130;28;20042;-78
2021/04/24 03:15:08;;;;;;;37.67;20.70;;;;;;;;;;4980259;28;20106;-79
2021/04/24 03:17:34;;;;;;;39.20;19.83;;;;;;;;;;4962509;28;20122;-79
2021/04/24 03:20:00;;;;;;;33.78;19.27;;;;;;;;;;4980137;28;20066;-79
2021/04/24 03:22:27;;;;;;;38.20;19.98;;;;;;;;;;4980145;28;20378;-79
2021/04/24 03:24:53;;;;;;;38.00;19.80;;;;;;;;;;4980007;28;20027;-79
2021/04/24 03:27:19;;;;;;;36.88;20.20;;;;;;;;;;4980257;28;20027;-79
2021/04/24 03:29:45;;;;;;;41.80;24.42;;;;;;;;;;4980049;28;20019;-79
2021/04/24 03:32:11;;;;;;;51.35;31.02;;;;;;;;;;4979804;28;20031;-79
2021/04/24 03:34:37;;;;;;;49.15;25.88;;;;;;;;;;4979613;28;20329;-79
2021/04/24 03:37:03;;;;;;;41.10;20.52;;;;;;;;;;4962309;28;20311;-79
2021/04/24 03:39:29;;;;;;;38.92;20.13;;;;;;;;;;4979661;28;20019;-79
2021/04/24 03:41:55;;;;;;;37.40;20.23;;;;;;;;;;4979480;28;20019;-79
2021/04/24 03:44:21;;;;;;;38.60;21.25;;;;;;;;;;4979817;28;20101;-79
2021/04/24 03:46:47;;;;;;;43.78;22.85;;;;;;;;;;4979878;28;20031;-79
2021/04/24 03:49:13;;;;;;;42.75;22.73;;;;;;;;;;4979644;28;20073;-79
2021/04/24 03:51:40;;;;;;;50.92;24.10;;;;;;;;;;4979523;28;20035;-79
2021/04/24 03:54:06;;;;;;;49.03;25.40;;;;;;;;;;4979228;28;20031;-79
2021/04/24 03:56:32;;;;;;;53.13;26.27;;;;;;;;;;4979182;28;20038;-79
2021/04/24 03:58:58;;;;;;;48.75;26.52;;;;;;;;;;4979235;28;20038;-78
2021/04/24 04:01:24;;;;;;;54.13;27.75;;;;;;;;;;4979308;28;20030;-79
2021/04/24 04:03:50;;;;;;;52.20;29.00;;;;;;;;;;4962084;28;20046;-78
2021/04/24 04:06:16;;;;;;;54.55;30.23;;;;;;;;;;4979431;28;20109;-79
2021/04/24 04:08:42;;;;;;;62.97;33.17;;;;;;;;;;4979256;28;20029;-78
2021/04/24 04:11:08;;;;;;;69.47;35.92;;;;;;;;;;4979057;28;20333;-79
2021/04/24 04:13:34;;;;;;;65.15;33.80;;;;;;;;;;4979045;28;20037;-79
2021/04/24 04:16:01;;;;;;;64.60;33.47;;;;;;;;;;4978811;28;20294;-78
2021/04/24 04:18:27;;;;;;;66.20;32.30;;;;;;;;;;4979144;28;20019;-78
2021/04/24 04:20:54;;;;;;;63.22;29.55;;;;;;;;;;4978696;28;20022;-78
2021/04/24 04:23:20;;;;;;;59.80;29.42;;;;;;;;;;4979020;28;20049;-78
2021/04/24 04:25:47;;;;;;;58.28;28.77;;;;;;;;;;4961311;28;20041;-78
2021/04/24 04:28:14;;;;;;;55.22;27.48;;;;;;;;;;4978726;28;20029;-79
2021/04/24 04:30:40;;;;;;;50.55;26.30;;;;;;;;;;4978126;28;20027;-79
2021/04/24 04:33:07;;;;;;;52.92;27.35;;;;;;;;;;4978791;28;20167;-79
2021/04/24 04:35:34;;;;;;;45.65;25.63;;;;;;;;;;4978863;28;20137;-79
2021/04/24 04:38:00;;;;;;;42.22;22.33;;;;;;;;;;4978630;28;20068;-78
2021/04/24 04:40:26;;;;;;;41.42;22.48;;;;;;;;;;4978296;28;20077;-78
2021/04/24 04:42:52;;;;;;;44.70;21.05;;;;;;;;;;4978699;28;20032;-79
2021/04/24 04:45:19;;;;;;;42.97;22.77;;;;;;;;;;4978696;28;20079;-78
2021/04/24 04:47:46;;;;;;;48.25;23.25;;;;;;;;;;4961154;28;20027;-78
2021/04/24 04:50:15;;;;;;;46.90;24.83;;;;;;;;;;4978335;28;20034;-79
2021/04/24 04:52:41;;;;;;;64.15;35.90;;;;;;;;;;4978438;28;20422;-78
2021/04/24 04:55:07;;;;;;;50.97;29.42;;;;;;;;;;4978214;28;20034;-78
2021/04/24 04:57:34;;;;;;;43.83;25.33;;;;;;;;;;4978413;28;20440;-79
2021/04/24 05:00:00;;;;;;;44.95;21.75;;;;;;;;;;4978473;28;20046;-78
2021/04/24 05:02:26;;;;;;;40.67;23.23;;;;;;;;;;4978505;28;20027;-79
2021/04/24 05:04:52;;;;;;;43.20;24.27;;;;;;;;;;4978198;28;20034;-79
2021/04/24 05:07:18;;;;;;;43.33;23.45;;;;;;;;;;4978189;28;20031;-77
2021/04/24 05:09:44;;;;;;;38.83;22.02;;;;;;;;;;4978191;28;20074;-78
2021/04/24 05:12:10;;;;;;;38.85;20.25;;;;;;;;;;4978125;28;20050;-78
2021/04/24 05:14:37;;;;;;;36.97;20.17;;;;;;;;;;4960922;28;20051;-79
2021/04/24 05:17:04;;;;;;;37.40;19.75;;;;;;;;;;4978061;28;20068;-79
2021/04/24 05:19:30;;;;;;;39.60;20.98;;;;;;;;;;4961022;28;20326;-79
2021/04/24 05:21:56;;;;;;;37.78;19.23;;;;;;;;;;4978252;28;20063;-79
2021/04/24 05:24:23;;;;;;;35.42;18.88;;;;;;;;;;4978129;28;20410;-79
2021/04/24 05:26:50;;;;;;;38.25;16.85;;;;;;;;;;4978022;28;20043;-80
2021/04/24 05:29:16;;;;;;;28.45;15.23;;;;;;;;;;4978073;28;20038;-80
2021/04/24 05:31:42;;;;;;;27.42;13.95;;;;;;;;;;4978185;28;20037;-78
2021/04/24 05:34:08;;;;;;;25.15;12.98;;;;;;;;;;4978004;28;20345;-78
2021/04/24 05:36:35;;;;;;;29.48;14.05;;;;;;;;;;4977634;28;20042;-79
2021/04/24 05:39:01;;;;;;;29.85;13.02;;;;;;;;;;4978036;28;20038;-78
2021/04/24 05:41:27;;;;;;;25.20;13.38;;;;;;;;;;4979822;28;20027;-79
2021/04/24 05:43:55;;;;;;;27.83;13.50;;;;;;;;;;4964933;28;20031;-78
2021/04/24 05:46:22;;;;;;;24.35;13.23;;;;;;;;;;4981922;28;20101;-78
2021/04/24 05:48:48;;;;;;;25.52;11.88;;;;;;;;;;4964285;28;20031;-78
2021/04/24 05:51:15;;;;;;;21.38;12.50;;;;;;;;;;4981762;28;20109;-78
2021/04/24 05:53:42;;;;;;;22.55;11.43;;;;;;;;;;4981720;28;20034;-79
2021/04/24 05:56:08;;;;;;;20.63;11.65;;;;;;;;;;4964355;28;20121;-79
2021/04/24 05:58:34;;;;;;;24.15;11.77;;;;;;;;;;4981494;28;20015;-79
2021/04/24 06:01:00;;;;;;;22.85;12.77;;;;;;;;;;4981826;28;20019;-79
2021/04/24 06:03:27;;;;;;;22.42;11.73;;;;;;;;;;4981605;28;20099;-85
2021/04/24 06:05:53;;;;;;;18.10;11.80;;;;;;;;;;4964433;28;20030;-82
2021/04/24 06:08:19;;;;;;;18.80;11.68;;;;;;;;;;4981476;28;20035;-82
2021/04/24 06:11:04;;;;;;;20.58;10.25;;;;;;;;;;4981489;28;20027;-82
2021/04/24 06:13:30;;;;;;;20.10;9.82;;;;;;;;;;4981359;28;20361;-82
2021/04/24 06:15:57;;;;;;;22.77;11.63;;;;;;;;;;4981629;28;20024;-82
2021/04/24 06:18:23;;;;;;;20.40;10.90;;;;;;;;;;4981368;28;20042;-82
2021/04/24 06:20:49;;;;;;;18.63;11.55;;;;;;;;;;4981306;28;20026;-82
2021/04/24 06:23:15;;;;;;;17.40;10.70;;;;;;;;;;4964124;28;20039;-82
2021/04/24 06:25:42;;;;;;;18.13;10.43;;;;;;;;;;4981282;28;20034;-81
2021/04/24 06:28:09;;;;;;;18.33;10.90;;;;;;;;;;4981243;28;20041;-81
2021/04/24 06:30:35;;;;;;;20.77;10.95;;;;;;;;;;4981009;28;20110;-74
2021/04/24 06:33:01;;;;;;;19.13;9.65;;;;;;;;;;4980827;28;20053;-79
2021/04/24 06:35:28;;;;;;;16.67;9.82;;;;;;;;;;4981095;28;20038;-82
2021/04/24 06:37:56;;;;;;;20.23;10.95;;;;;;;;;;4963889;28;20019;-82
2021/04/24 06:40:23;;;;;;;17.40;9.15;;;;;;;;;;4980782;28;20019;-82
2021/04/24 06:42:49;;;;;;;22.25;11.02;;;;;;;;;;4981311;28;20030;-82
2021/04/24 06:45:15;;;;;;;23.40;14.68;;;;;;;;;;4980783;28;20030;-82
2021/04/24 06:47:42;;;;;;;23.20;11.68;;;;;;;;;;4963304;28;20043;-81
2021/04/24 06:50:09;;;;;;;17.10;10.30;;;;;;;;;;4980874;28;20050;-82
2021/04/24 06:52:36;;;;;;;16.73;10.52;;;;;;;;;;4980008;28;20231;-82
2021/04/24 06:55:02;;;;;;;15.50;10.45;;;;;;;;;;4980576;28;20026;-81
2021/04/24 06:57:28;;;;;;;15.20;9.77;;;;;;;;;;4963566;28;20030;-81
2021/04/24 06:59:54;;;;;;;13.93;9.32;;;;;;;;;;4980856;28;20022;-81
2021/04/24 07:02:20;;;;;;;16.40;9.30;;;;;;;;;;4981035;28;20405;-82
2021/04/24 07:04:46;;;;;;;14.23;9.25;;;;;;;;;;4980642;28;20039;-82
2021/04/24 07:07:12;;;;;;;16.73;10.25;;;;;;;;;;4963405;28;20483;-82
2021/04/24 07:09:38;;;;;;;18.55;9.90;;;;;;;;;;4980566;28;20318;-82
2021/04/24 07:12:05;;;;;;;13.57;9.48;;;;;;;;;;4962978;28;20041;-82
2021/04/24 07:14:31;;;;;;;18.67;9.88;;;;;;;;;;4980337;28;20026;-82
2021/04/24 07:16:57;;;;;;;15.20;8.55;;;;;;;;;;4980259;28;20050;-82
2021/04/24 07:19:23;;;;;;;17.33;9.88;;;;;;;;;;4980136;28;20031;-83
2021/04/24 07:21:50;;;;;;;15.38;10.10;;;;;;;;;;4980193;28;20031;-82
2021/04/24 07:24:16;;;;;;;17.02;9.38;;;;;;;;;;4980357;28;20030;-83
2021/04/24 07:26:42;;;;;;;17.98;10.02;;;;;;;;;;4962297;28;20039;-90
2021/04/24 07:29:08;;;;;;;15.88;9.63;;;;;;;;;;4980333;28;20034;-87
2021/04/24 07:31:34;;;;;;;16.20;9.90;;;;;;;;;;4980770;28;20022;-86
2021/04/24 07:34:00;;;;;;;22.33;11.57;;;;;;;;;;4980103;28;20058;-82
2021/04/24 07:36:27;;;;;;;20.27;13.77;;;;;;;;;;4979741;28;20038;-81
2021/04/24 07:38:55;;;;;;;24.70;14.23;;;;;;;;;;4978687;28;20034;-86
2021/04/24 07:44:32;;;;;;;24.33;11.43;;;;;;;;;;4980274;28;20022;-86
2021/04/24 07:46:58;;;;;;;20.05;11.00;;;;;;;;;;4980038;28;20309;-82
2021/04/24 07:49:24;;;;;;;16.88;11.75;;;;;;;;;;4979698;28;20077;-82
2021/04/24 07:51:50;;;;;;;31.67;13.02;;;;;;;;;;4979713;28;20113;-82
2021/04/24 07:54:16;;;;;;;17.27;10.75;;;;;;;;;;4962671;28;20023;-81
2021/04/24 07:56:43;;;;;;;18.17;10.40;;;;;;;;;;4979511;28;20022;-81
2021/04/24 07:59:09;;;;;;;18.83;11.20;;;;;;;;;;4978942;28;20027;-81
2021/04/24 08:01:36;;;;;;;22.75;11.68;;;;;;;;;;4979721;28;20027;-82
2021/04/24 08:04:02;;;;;;;16.83;11.02;;;;;;;;;;4978760;28;20026;-82
2021/04/24 08:06:28;;;;;;;19.90;10.13;;;;;;;;;;4979615;28;20341;-82
2021/04/24 08:08:54;;;;;;;16.77;9.05;;;;;;;;;;4961699;28;20045;-81
2021/04/24 08:11:20;;;;;;;14.73;9.57;;;;;;;;;;4979417;28;20035;-82
2021/04/24 08:13:47;;;;;;;16.65;10.50;;;;;;;;;;4979189;28;20038;-82
2021/04/24 08:16:13;;;;;;;16.33;8.20;;;;;;;;;;4979288;28;20027;-82
2021/04/24 08:18:39;;;;;;;13.60;8.57;;;;;;;;;;4979124;28;20030;-82
2021/04/24 08:21:06;;;;;;;13.55;8.57;;;;;;;;;;4978949;28;20018;-82
2021/04/24 08:23:32;;;;;;;13.60;8.38;;;;;;;;;;4961782;28;20117;-82
2021/04/24 08:26:18;;;;;;;17.30;9.65;;;;;;;;;;4979203;28;20030;-82
2021/04/24 08:28:44;;;;;;;12.32;7.45;;;;;;;;;;4978969;28;20031;-81
2021/04/24 08:31:10;;;;;;;12.65;7.50;;;;;;;;;;4961586;28;20039;-81
2021/04/24 08:33:36;;;;;;;17.05;8.65;;;;;;;;;;4978619;28;20050;-81
2021/04/24 08:36:03;;;;;;;10.07;7.40;;;;;;;;;;4978746;28;20163;-81
2021/04/24 08:38:29;;;;;;;12.30;7.25;;;;;;;;;;4978667;28;20031;-81
2021/04/24 08:40:55;;;;;;;13.48;7.55;;;;;;;;;;4961539;28;20034;-81
2021/04/24 08:43:22;;;;;;;13.10;8.02;;;;;;;;;;4978942;28;20066;-81
2021/04/24 08:45:49;;;;;;;14.43;7.97;;;;;;;;;;4978830;28;20023;-81
2021/04/24 08:48:19;;;;;;;15.85;8.00;;;;;;;;;;4978784;28;20038;-81
2021/04/24 08:50:46;;;;;;;12.45;7.22;;;;;;;;;;4961214;28;20134;-81
2021/04/24 08:53:12;;;;;;;12.18;7.25;;;;;;;;;;4961488;28;20037;-81
2021/04/24 08:55:38;;;;;;;14.13;7.45;;;;;;;;;;4978419;28;20048;-81
2021/04/24 08:58:06;;;;;;;16.00;7.78;;;;;;;;;;4978465;28;20452;-81
2021/04/24 09:00:36;;;;;;;14.57;7.40;;;;;;;;;;4978632;28;20412;-81
2021/04/24 09:03:04;;;;;;;13.77;7.22;;;;;;;;;;4978545;28;20034;-86
2021/04/24 09:05:30;;;;;;;15.43;7.10;;;;;;;;;;4978803;28;20153;-83
2021/04/24 09:08:03;;;;;;;16.60;7.82;;;;;;;;;;4978963;28;20030;-87
2021/04/24 09:10:34;;;;;;;13.65;7.95;;;;;;;;;;4960698;28;20046;-86
2021/04/24 09:13:00;;;;;;;16.50;7.50;;;;;;;;;;4979065;28;20023;-86
2021/04/24 09:15:27;;;;;;;13.05;7.03;;;;;;;;;;4978605;28;20034;-87
2021/04/24 09:17:55;;;;;;;17.50;8.05;;;;;;;;;;4978545;28;20442;-88
2021/04/24 09:20:22;;;;;;;18.63;7.43;;;;;;;;;;4978741;28;20417;-85
2021/04/24 09:22:55;;;;;;;17.40;9.07;;;;;;;;;;4978686;28;20424;-85
2021/04/24 09:31:29;;;;;;;15.10;8.57;;;;;;;;;;4978788;28;20034;-85
2021/04/24 09:33:57;;;;;;;11.80;6.47;;;;;;;;;;4961402;28;20441;-84
2021/04/24 09:36:24;;;;;;;10.30;6.13;;;;;;;;;;4978448;28;20421;-85
2021/04/24 09:38:52;;;;;;;8.85;5.60;;;;;;;;;;4978430;28;20034;-86
2021/04/24 09:41:19;;;;;;;13.00;6.25;;;;;;;;;;4978109;28;20030;-85
2021/04/24 09:43:48;;;;;;;10.52;5.60;;;;;;;;;;4961512;28;20073;-86
2021/04/24 09:46:14;;;;;;;10.00;6.82;;;;;;;;;;4978359;28;20433;-86
2021/04/24 09:48:40;;;;;;;10.98;6.25;;;;;;;;;;4961525;28;20031;-86
2021/04/24 09:51:16;;;;;;;10.95;6.50;;;;;;;;;;4978585;28;20365;-85
2021/04/24 09:53:52;;;;;;;12.52;6.13;;;;;;;;;;4977389;28;20083;-86
2021/04/24 09:56:18;;;;;;;13.05;7.40;;;;;;;;;;4961165;28;20022;-86
2021/04/24 09:58:45;;;;;;;20.08;11.20;;;;;;;;;;4978317;28;20127;-86
2021/04/24 10:01:24;;;;;;;12.43;7.40;;;;;;;;;;4978408;28;20023;-86
2021/04/24 10:03:51;;;;;;;9.13;5.30;;;;;;;;;;4978354;28;20031;-85
2021/04/24 10:06:21;;;;;;;11.25;5.07;;;;;;;;;;4978354;28;20042;-85
2021/04/24 10:08:47;;;;;;;9.18;5.43;;;;;;;;;;4978208;28;20039;-86
2021/04/24 10:11:27;;;;;;;11.90;6.32;;;;;;;;;;4978393;28;20023;-85
2021/04/24 10:13:53;;;;;;;11.20;5.15;;;;;;;;;;4978053;28;20082;-85
2021/04/24 10:16:35;;;;;;;14.98;5.97;;;;;;;;;;4977943;28;20105;-86
2021/04/24 10:19:01;;;;;;;;;;;;;;;;;;4978710;28;20023;-86
2021/04/24 10:21:29;;;;;;;8.25;4.55;;;;;;;;;;4978352;28;19921;-86
2021/04/24 10:23:55;;;;;;;10.15;5.32;;;;;;;;;;4978072;28;20074;-86
2021/04/24 10:26:21;;;;;;;12.10;5.88;;;;;;;;;;4977886;28;20094;-86
2021/04/24 10:28:48;;;;;;;6.82;5.00;;;;;;;;;;4980554;28;20070;-86
2021/04/24 10:31:14;;;;;;;13.32;5.70;;;;;;;;;;4981680;28;20477;-86
2021/04/24 10:33:40;;;;;;;19.55;6.10;;;;;;;;;;4981557;28;20051;-85
2021/04/24 10:36:07;;;;;;;10.63;5.75;;;;;;;;;;4981064;28;20042;-85
2021/04/24 10:38:34;;;;;;;15.05;6.57;;;;;;;;;;4981356;28;20027;-86
2021/04/24 10:41:00;;;;;;;9.40;5.80;;;;;;;;;;4964195;28;20019;-85
2021/04/24 10:43:30;;;;;;;9.20;4.85;;;;;;;;;;4981996;28;20110;-85
2021/04/24 10:46:16;;;;;;;10.63;5.50;;;;;;;;;;4982224;28;20027;-85
2021/04/24 10:48:42;;;;;;;9.52;5.32;;;;;;;;;;4981706;28;20050;-84
2021/04/24 10:51:08;;;;;;;13.60;6.40;;;;;;;;;;4981570;28;20038;-84
2021/04/24 10:53:34;;;;;;;9.40;5.63;;;;;;;;;;4983619;28;20058;-84
2021/04/24 10:56:01;;;;;;;14.18;6.53;;;;;;;;;;4949615;29;20456;-84
2021/04/24 10:58:29;;;;;;;12.65;6.07;;;;;;;;;;4944790;29;20035;-84
2021/04/24 11:00:58;;;;;;;5.53;4.45;;;;;;;;;;4944785;29;20342;-84
2021/04/24 11:03:37;;;;;;;11.40;5.07;;;;;;;;;;4961484;29;20295;-84
2021/04/24 11:06:12;;;;;;;9.75;5.10;;;;;;;;;;4961550;29;20063;-85
2021/04/24 11:08:39;;;;;;;10.05;5.20;;;;;;;;;;4961531;29;20418;-85
2021/04/24 11:11:07;;;;;;;11.02;4.80;;;;;;;;;;4961364;29;20035;-85
2021/04/24 11:13:37;;;;;;;8.98;4.50;;;;;;;;;;4961344;29;20370;-86
2021/04/24 11:16:04;;;;;;;8.55;4.40;;;;;;;;;;4944270;29;20035;-85
2021/04/24 11:18:31;;;;;;;9.18;4.95;;;;;;;;;;4961500;29;20066;-85
2021/04/24 11:21:06;;;;;;;6.97;3.58;;;;;;;;;;4961439;29;20046;-83
2021/04/24 11:23:33;;;;;;;11.57;4.78;;;;;;;;;;4961215;29;20076;-85
2021/04/24 11:26:25;;;;;;;9.27;4.88;;;;;;;;;;4961295;29;20027;-85
2021/04/24 11:28:51;;;;;;;;;;;;;;;;;;4884087;29;20488;-85
2021/04/24 11:31:17;;;;;;;10.20;5.38;;;;;;;;;;4868300;29;19911;-85
2021/04/24 11:33:45;;;;;;;9.98;5.57;;;;;;;;;;4883517;29;20072;-90
2021/04/24 11:36:26;;;;;;;10.80;6.25;;;;;;;;;;4867970;29;20069;-85
2021/04/24 11:38:59;;;;;;;10.23;5.80;;;;;;;;;;4883279;29;20041;-85
2021/04/24 11:41:28;;;;;;;10.23;5.55;;;;;;;;;;4867942;29;20028;-84
2021/04/24 11:43:55;;;;;;;9.20;4.70;;;;;;;;;;4867989;29;20051;-85
2021/04/24 11:46:36;;;;;;;8.32;4.85;;;;;;;;;;4883405;29;20092;-85
2021/04/24 11:49:06;;;;;;;6.82;4.90;;;;;;;;;;4883428;29;20033;-85
2021/04/24 11:51:36;;;;;;;9.20;4.95;;;;;;;;;;4881973;29;20437;-85
2021/04/24 11:54:03;;;;;;;10.70;5.45;;;;;;;;;;4883233;29;20408;-85
2021/04/24 11:56:29;;;;;;;10.70;5.15;;;;;;;;;;4867915;29;20061;-86
2021/04/24 11:58:55;;;;;;;10.95;5.68;;;;;;;;;;4883298;29;20084;-86
2021/04/24 12:01:22;;;;;;;22.70;11.07;;;;;;;;;;4883293;29;20037;-85
2021/04/24 12:03:49;;;;;;;12.23;5.45;;;;;;;;;;4883068;29;20029;-85
2021/04/24 12:06:31;;;;;;;11.13;5.55;;;;;;;;;;4942172;29;20039;-85
2021/04/24 12:09:03;;;;;;;9.38;4.68;;;;;;;;;;4960773;29;20031;-87
2021/04/24 12:11:29;;;;;;;10.77;4.30;;;;;;;;;;4960486;29;20027;-84
2021/04/24 12:13:55;;;;;;;6.50;4.45;;;;;;;;;;4960220;29;20687;-85
2021/04/24 12:16:21;;;;;;;13.35;5.60;;;;;;;;;;4960367;29;20387;-91
2021/04/24 12:18:48;;;;;;;11.30;5.30;;;;;;;;;;4960229;28;20033;-90
2021/04/24 12:21:24;;;;;;;13.07;5.50;;;;;;;;;;4960430;28;20035;-92
2021/04/24 12:23:50;;;;;;;9.50;5.40;;;;;;;;;;4960394;29;20023;-90
2021/04/24 12:26:16;;;;;;;9.93;5.50;;;;;;;;;;4960494;29;20039;-89
2021/04/24 12:28:45;;;;;;;11.25;5.97;;;;;;;;;;4960434;29;20031;-89
2021/04/24 12:31:11;;;;;;;10.98;6.82;;;;;;;;;;4960280;29;20078;-90
2021/04/24 12:33:37;;;;;;;11.15;6.25;;;;;;;;;;4943322;29;20134;-91
2021/04/24 12:36:05;;;;;;;20.27;7.30;;;;;;;;;;4943319;29;20437;-87
2021/04/24 12:38:32;;;;;;;10.95;6.18;;;;;;;;;;4943213;29;20074;-90
2021/04/24 12:41:02;;;;;;;11.82;6.18;;;;;;;;;;4960316;29;20023;-91
2021/04/24 12:43:30;;;;;;;14.45;6.63;;;;;;;;;;4943132;29;20422;-90
2021/04/24 12:45:58;;;;;;;11.63;7.30;;;;;;;;;;4960245;29;20142;-90
2021/04/24 12:48:25;;;;;;;10.55;6.65;;;;;;;;;;4959652;28;20039;-90
2021/04/24 12:50:52;;;;;;;16.52;7.15;;;;;;;;;;4959830;28;20094;-91
2021/04/24 12:53:41;;;;;;;10.25;6.55;;;;;;;;;;4942935;29;20035;-90
2021/04/24 12:56:12;;;;;;;11.43;6.65;;;;;;;;;;4960076;29;20110;-91
2021/04/24 12:58:39;;;;;;;11.57;6.75;;;;;;;;;;4960049;29;20047;-91
2021/04/24 13:01:11;;;;;;;10.02;6.53;;;;;;;;;;4959688;29;20023;-90
2021/04/24 13:03:38;;;;;;;13.70;7.78;;;;;;;;;;4959746;29;20069;-89
2021/04/24 13:06:13;;;;;;;13.18;7.15;;;;;;;;;;4959657;29;20461;-91
2021/04/24 13:08:40;;;;;;;20.02;11.10;;;;;;;;;;4959936;29;20035;-90
2021/04/24 13:11:06;;;;;;;16.00;6.78;;;;;;;;;;4960041;29;20303;-90
2021/04/24 13:13:32;;;;;;;11.05;6.32;;;;;;;;;;4959934;29;20098;-90
2021/04/24 13:15:58;;;;;;;12.45;7.13;;;;;;;;;;4959464;29;20027;-90
2021/04/24 13:18:25;;;;;;;13.95;7.78;;;;;;;;;;4942567;29;20481;-89
2021/04/24 13:20:52;;;;;;;14.05;6.50;;;;;;;;;;4959401;29;20044;-90
2021/04/24 13:23:18;;;;;;;12.23;6.43;;;;;;;;;;4959493;29;20047;-91
2021/04/24 13:25:44;;;;;;;12.82;6.00;;;;;;;;;;4959397;29;20027;-90
2021/04/24 13:28:10;;;;;;;11.27;6.65;;;;;;;;;;4959813;29;20047;-91
2021/04/24 13:30:40;;;;;;;12.68;6.88;;;;;;;;;;4959612;29;20441;-90
2021/04/24 13:33:06;;;;;;;10.30;6.70;;;;;;;;;;4942389;29;20445;-91
2021/04/24 13:35:42;;;;;;;12.88;7.10;;;;;;;;;;4942371;29;20070;-90
2021/04/24 13:38:09;;;;;;;12.00;6.60;;;;;;;;;;4942457;29;20042;-91
2021/04/24 13:40:35;;;;;;;10.30;6.68;;;;;;;;;;4959480;28;20027;-90
2021/04/24 13:43:01;;;;;;;13.43;6.50;;;;;;;;;;4942497;29;20038;-91
2021/04/24 13:45:28;;;;;;;14.48;7.30;;;;;;;;;;4942357;29;20062;-91
2021/04/24 13:47:54;;;;;;;13.27;7.00;;;;;;;;;;4942435;29;20102;-93
2021/04/24 13:50:21;;;;;;;9.15;6.13;;;;;;;;;;4959531;29;20075;-94
2021/04/24 13:52:47;;;;;;;8.95;5.82;;;;;;;;;;4959051;28;20020;-92
2021/04/24 13:55:14;;;;;;;10.35;5.40;;;;;;;;;;4959369;29;20023;-91
2021/04/24 13:57:40;;;;;;;12.25;5.97;;;;;;;;;;4942187;29;20370;-94
2021/04/24 14:00:07;;;;;;;11.43;6.00;;;;;;;;;;4959420;29;20106;-93
2021/04/24 14:02:33;;;;;;;12.73;6.25;;;;;;;;;;4961277;28;20023;-92
2021/04/24 14:04:59;;;;;;;11.38;5.82;;;;;;;;;;4946038;29;20354;-92
2021/04/24 14:07:26;;;;;;;11.23;5.32;;;;;;;;;;4946140;29;20039;-93
2021/04/24 14:09:52;;;;;;;12.73;5.78;;;;;;;;;;4963087;29;20083;-93
2021/04/24 14:15:21;;;;;;;10.02;5.80;;;;;;;;;;4962884;29;20106;-94
2021/04/24 14:17:48;;;;;;;9.63;6.00;;;;;;;;;;4962935;29;20354;-93
2021/04/24 14:20:15;;;;;;;9.50;5.20;;;;;;;;;;4962357;28;20031;-93
2021/04/24 14:22:41;;;;;;;12.77;6.85;;;;;;;;;;4962844;29;20027;-93
2021/04/24 14:25:08;;;;;;;9.80;4.97;;;;;;;;;;4962420;29;20019;-93
2021/04/24 14:30:37;;;;;;;10.88;5.85;;;;;;;;;;4962694;28;20075;-92
2021/04/24 14:33:04;;;;;;;12.52;6.68;;;;;;;;;;4962018;28;20031;-92
2021/04/24 14:35:30;;;;;;;9.70;6.20;;;;;;;;;;4962577;29;20035;-92
2021/04/24 14:37:56;;;;;;;11.75;6.32;;;;;;;;;;4962162;29;20019;-93
2021/04/24 14:40:22;;;;;;;11.10;6.13;;;;;;;;;;4961989;28;20035;-93
2021/04/24 14:43:03;;;;;;;12.80;5.97;;;;;;;;;;4945876;29;20082;-92